Time;durP1;ratioP1;P1;durP2;ratioP2;P2;SDS_P1;SDS_P2;PMS_P1;PMS_P2;Temp;Humidity;BMP_temperature;BMP_pressure;BME280_temperature;BME280_humidity;BME280_pressure;Samples;Min_cycle;Max_cycle;Signal;HPM_P1;HPM_P2
2023/04/29 00:00:19;;;;;;;7.55;4.65;;;;;;;6.29;51.47;94850.63;5075571;28;20036;-72
2023/04/29 00:02:45;;;;;;;5.78;3.72;;;;;;;6.36;51.16;94828.69;5074560;28;20516;-72
2023/04/29 00:05:10;;;;;;;4.90;3.53;;;;;;;6.42;51.37;94852.31;5072960;28;20051;-72
2023/04/29 00:07:36;;;;;;;6.05;3.90;;;;;;;6.47;51.46;94837.34;5054771;28;20032;-72
2023/04/29 00:10:02;;;;;;;5.35;3.63;;;;;;;6.40;51.30;94833.53;5075654;28;20046;-72
2023/04/29 00:12:29;;;;;;;6.63;3.72;;;;;;;6.40;51.37;94825.78;5058139;28;20375;-72
2023/04/29 00:14:54;;;;;;;5.18;3.25;;;;;;;6.35;51.69;94838.19;5066186;28;20033;-72
2023/04/29 00:17:20;;;;;;;5.22;3.80;;;;;;;6.34;51.71;94839.09;5059562;28;20119;-71
2023/04/29 00:19:45;;;;;;;5.72;3.80;;;;;;;6.46;51.65;94851.22;5058055;28;20329;-72
2023/04/29 00:22:11;;;;;;;5.60;3.72;;;;;;;6.43;51.60;94850.56;5090788;28;20035;-72
2023/04/29 00:24:36;;;;;;;4.53;3.35;;;;;;;6.28;52.28;94849.00;5058118;28;20039;-71
2023/04/29 00:27:02;;;;;;;7.30;3.70;;;;;;;6.07;51.93;94809.94;5091055;28;20032;-72
2023/04/29 00:29:27;;;;;;;5.93;3.53;;;;;;;6.15;52.04;94839.47;5092748;28;20063;-72
2023/04/29 00:31:53;;;;;;;5.32;3.47;;;;;;;6.04;52.43;94847.91;5072272;28;20036;-72
2023/04/29 00:34:18;;;;;;;5.40;3.40;;;;;;;6.05;52.29;94861.63;5060997;28;20032;-72
2023/04/29 00:36:44;;;;;;;4.93;3.53;;;;;;;6.02;52.50;94860.06;5077704;28;20074;-72
2023/04/29 00:39:10;;;;;;;5.15;3.53;;;;;;;6.06;52.66;94863.28;5073184;28;20040;-71
2023/04/29 00:41:35;;;;;;;7.10;3.90;;;;;;;5.92;53.17;94861.53;5074074;28;20028;-72
2023/04/29 00:44:01;;;;;;;8.20;4.20;;;;;;;5.91;53.26;94867.63;5065025;28;20031;-73
2023/04/29 00:46:27;;;;;;;4.68;3.60;;;;;;;5.87;53.54;94863.59;5057613;28;20020;-72
2023/04/29 00:48:52;;;;;;;5.78;3.92;;;;;;;5.85;53.65;94864.59;5031307;28;20137;-72
2023/04/29 00:51:17;;;;;;;5.35;3.65;;;;;;;5.70;54.38;94858.69;5054625;28;20035;-72
2023/04/29 00:53:43;;;;;;;6.00;4.00;;;;;;;5.71;54.27;94855.16;5070012;28;20031;-72
2023/04/29 00:56:09;;;;;;;6.55;3.50;;;;;;;5.64;54.17;94852.16;5074283;28;20051;-72
2023/04/29 00:58:35;;;;;;;5.78;3.80;;;;;;;5.65;54.69;94851.22;5073569;28;20062;-72
2023/04/29 01:01:01;;;;;;;7.28;3.80;;;;;;;5.38;55.00;94828.03;5057365;28;20032;-71
2023/04/29 01:03:28;;;;;;;8.20;3.88;;;;;;;5.52;54.94;94829.75;5055568;28;20051;-72
2023/04/29 01:06:14;;;;;;;4.97;3.80;;;;;;;5.33;55.65;94818.00;5064512;28;20029;-71
2023/04/29 01:08:56;;;;;;;6.22;4.35;;;;;;;5.20;56.25;94832.53;5057027;28;20059;-72
2023/04/29 01:11:22;;;;;;;5.90;4.00;;;;;;;5.15;56.52;94832.00;5076293;28;20372;-72
2023/04/29 01:13:57;;;;;;;7.03;4.20;;;;;;;5.11;56.62;94830.53;5041003;28;20033;-71
2023/04/29 01:16:24;;;;;;;5.38;3.67;;;;;;;5.14;56.12;94820.88;5024348;28;20032;-72
2023/04/29 01:19:01;;;;;;;7.35;4.00;;;;;;;5.08;56.25;94812.72;5056394;28;20032;-72
2023/04/29 01:21:27;;;;;;;6.75;3.63;;;;;;;5.02;56.76;94815.66;5057193;28;20035;-72
2023/04/29 01:23:55;;;;;;;7.43;3.83;;;;;;;5.05;56.52;94813.72;5056218;28;20032;-72
2023/04/29 01:26:23;;;;;;;5.03;3.80;;;;;;;5.10;56.98;94818.59;5072403;28;20032;-71
2023/04/29 01:28:50;;;;;;;6.82;4.35;;;;;;;5.04;57.08;94808.66;5072484;28;20057;-71
2023/04/29 01:31:23;;;;;;;5.90;3.65;;;;;;;5.01;57.25;94809.66;5073411;28;20024;-72
2023/04/29 01:34:04;;;;;;;6.30;3.92;;;;;;;5.10;57.44;94811.69;5062767;28;20486;-72
2023/04/29 01:36:52;;;;;;;5.18;3.83;;;;;;;5.17;57.33;94819.88;5074376;28;20043;-71
2023/04/29 01:39:36;;;;;;;5.45;4.05;;;;;;;5.13;57.40;94828.72;5073618;28;20244;-71
2023/04/29 01:42:13;;;;;;;7.43;3.88;;;;;;;5.09;57.03;94811.78;5054405;28;20505;-72
2023/04/29 01:44:38;;;;;;;4.97;3.95;;;;;;;4.96;57.80;94821.16;5040658;28;20036;-71
2023/04/29 01:47:03;;;;;;;8.15;3.92;;;;;;;5.06;57.96;94824.84;5056491;28;20031;-72
2023/04/29 01:49:29;;;;;;;6.10;3.90;;;;;;;5.05;57.22;94813.72;5053027;28;20045;-72
2023/04/29 01:51:55;;;;;;;5.90;4.10;;;;;;;5.04;57.01;94803.50;5053296;28;20024;-72
2023/04/29 01:54:24;;;;;;;5.43;3.92;;;;;;;5.00;57.47;94817.50;5071476;28;20426;-72
2023/04/29 01:56:50;;;;;;;6.63;3.85;;;;;;;4.98;57.55;94820.16;5057363;28;20047;-72
2023/04/29 01:59:16;;;;;;;6.60;3.83;;;;;;;4.93;57.32;94792.13;5056997;28;20055;-71
2023/04/29 02:01:41;;;;;;;8.82;3.53;;;;;;;5.10;57.35;94816.84;5087500;28;20020;-72
2023/04/29 02:04:07;;;;;;;5.15;3.55;;;;;;;4.99;57.31;94800.41;5091642;28;20486;-72
2023/04/29 02:06:32;;;;;;;5.65;3.53;;;;;;;5.06;57.29;94810.22;5091238;28;20099;-72
2023/04/29 02:08:58;;;;;;;5.40;3.63;;;;;;;5.06;56.95;94809.41;5091446;28;20024;-72
2023/04/29 02:11:23;;;;;;;6.00;3.55;;;;;;;5.03;57.25;94817.31;5085991;28;20024;-72
2023/04/29 02:13:49;;;;;;;5.97;3.38;;;;;;;4.97;57.34;94813.34;5090468;28;20024;-72
2023/04/29 02:16:15;;;;;;;5.50;3.60;;;;;;;5.01;57.54;94819.97;5090751;28;20379;-72
2023/04/29 02:18:40;;;;;;;6.80;4.00;;;;;;;4.89;58.02;94826.69;5052874;28;20419;-72
2023/04/29 02:21:06;;;;;;;4.65;3.53;;;;;;;4.88;58.20;94812.19;5082015;28;20024;-72
2023/04/29 02:23:32;;;;;;;6.35;4.15;;;;;;;4.84;58.16;94804.72;5054445;28;20039;-72
2023/04/29 02:25:58;;;;;;;5.65;3.92;;;;;;;4.91;58.13;94822.28;5073211;28;20567;-72
2023/04/29 02:28:23;;;;;;;5.88;3.83;;;;;;;4.92;58.19;94817.97;5073276;28;20033;-71
2023/04/29 02:30:49;;;;;;;7.97;4.25;;;;;;;4.87;58.34;94805.34;5088588;28;20089;-72
2023/04/29 02:33:15;;;;;;;6.85;4.05;;;;;;;5.05;57.97;94815.47;5057279;28;20024;-72
2023/04/29 02:35:40;;;;;;;6.25;3.50;;;;;;;4.93;58.09;94801.56;5035252;28;20051;-72
2023/04/29 02:38:06;;;;;;;6.43;3.63;;;;;;;5.03;58.10;94817.31;5035665;28;20024;-72
2023/04/29 02:40:31;;;;;;;5.70;3.72;;;;;;;4.93;58.13;94817.88;5070627;28;20036;-72
2023/04/29 02:42:57;;;;;;;7.28;3.83;;;;;;;4.79;58.38;94804.16;5079813;28;20028;-72
2023/04/29 02:45:22;;;;;;;6.55;4.18;;;;;;;4.90;58.63;94820.63;5019434;28;20037;-72
2023/04/29 02:47:47;;;;;;;6.03;4.00;;;;;;;4.88;58.36;94812.19;5088020;28;20551;-72
2023/04/29 02:50:13;;;;;;;6.70;4.00;;;;;;;4.82;59.12;94812.56;5056266;28;20493;-72
2023/04/29 02:52:40;;;;;;;5.85;3.90;;;;;;;4.80;58.80;94816.13;5038755;28;20032;-72
2023/04/29 02:55:06;;;;;;;5.28;4.13;;;;;;;4.81;58.69;94816.03;5030769;28;20028;-72
2023/04/29 02:57:32;;;;;;;6.18;4.25;;;;;;;4.81;58.57;94823.75;5052864;28;20111;-72
2023/04/29 02:59:58;;;;;;;7.30;3.83;;;;;;;4.82;58.52;94820.28;5053692;28;20036;-72
2023/04/29 03:02:23;;;;;;;5.78;4.40;;;;;;;4.79;58.53;94825.59;5071659;28;20040;-72
2023/04/29 03:04:49;;;;;;;5.32;3.80;;;;;;;4.68;59.01;94822.81;5038721;28;20529;-72
2023/04/29 03:07:16;;;;;;;7.10;3.85;;;;;;;4.65;59.06;94835.88;5056313;28;20044;-73
2023/04/29 03:09:41;;;;;;;6.25;3.75;;;;;;;4.41;59.60;94828.69;5074339;28;20039;-72
2023/04/29 03:12:07;;;;;;;7.35;4.00;;;;;;;4.53;59.65;94849.47;5056315;28;20052;-72
2023/04/29 03:14:32;;;;;;;6.03;3.55;;;;;;;4.60;59.47;94850.78;5056012;28;20051;-72
2023/04/29 03:16:58;;;;;;;8.27;4.13;;;;;;;4.59;59.69;94849.09;5056702;28;20482;-72
2023/04/29 03:19:23;;;;;;;4.60;3.65;;;;;;;4.61;59.62;94831.84;5076326;28;20505;-72
2023/04/29 03:21:49;;;;;;;5.28;3.80;;;;;;;4.69;59.38;94839.94;5093037;28;20417;-72
2023/04/29 03:24:14;;;;;;;5.75;4.05;;;;;;;4.58;59.73;94842.31;5074906;28;20512;-72
2023/04/29 03:26:41;;;;;;;6.13;3.83;;;;;;;4.58;59.59;94842.31;5042811;28;20426;-72
2023/04/29 03:29:07;;;;;;;6.63;3.85;;;;;;;4.60;59.04;94840.47;5075816;28;20040;-72
2023/04/29 03:31:33;;;;;;;4.63;3.42;;;;;;;4.61;59.27;94836.97;5081857;28;20031;-72
2023/04/29 03:33:58;;;;;;;5.53;4.25;;;;;;;4.61;59.31;94855.00;5039259;28;20031;-72
2023/04/29 03:36:24;;;;;;;7.40;4.32;;;;;;;4.41;59.41;94833.00;5022742;28;20017;-72
2023/04/29 03:38:49;;;;;;;5.57;3.95;;;;;;;4.56;59.39;94859.56;5039211;28;20060;-72
2023/04/29 03:41:14;;;;;;;6.28;3.92;;;;;;;4.51;59.32;94857.25;5073586;28;20082;-72
2023/04/29 03:43:42;;;;;;;7.22;4.00;;;;;;;4.56;59.03;94862.16;5046754;28;20024;-72
2023/04/29 03:46:08;;;;;;;6.30;4.00;;;;;;;4.40;59.40;94864.78;5053023;28;20560;-72
2023/04/29 03:48:34;;;;;;;4.57;3.70;;;;;;;4.43;59.69;94880.03;5048837;28;20050;-73
2023/04/29 03:50:59;;;;;;;5.68;3.65;;;;;;;4.51;60.01;94883.00;5075838;28;20615;-72
2023/04/29 03:53:25;;;;;;;7.35;3.67;;;;;;;4.56;59.68;94875.00;5075472;28;20020;-71
2023/04/29 03:55:50;;;;;;;5.72;3.95;;;;;;;4.59;59.49;94875.66;5085251;28;20032;-72
2023/04/29 03:58:16;;;;;;;6.90;3.78;;;;;;;4.63;59.41;94868.59;5089154;28;20020;-72
2023/04/29 04:00:41;;;;;;;5.45;3.90;;;;;;;4.71;59.46;94871.56;5074028;28;20097;-72
2023/04/29 04:03:07;;;;;;;5.50;3.90;;;;;;;4.67;59.68;94867.50;5080000;28;20043;-72
2023/04/29 04:05:33;;;;;;;6.03;4.05;;;;;;;4.66;59.42;94853.81;5075658;28;20032;-72
2023/04/29 04:07:59;;;;;;;5.00;3.88;;;;;;;4.75;59.54;94859.31;5058829;28;20032;-73
2023/04/29 04:10:25;;;;;;;4.40;3.70;;;;;;;4.62;59.61;94846.34;5075226;28;20036;-72
2023/04/29 04:12:50;;;;;;;7.57;3.67;;;;;;;4.67;59.49;94836.63;5058512;28;20031;-72
2023/04/29 04:15:16;;;;;;;5.18;3.65;;;;;;;4.95;59.11;94865.88;5055930;28;20494;-72
2023/04/29 04:17:42;;;;;;;6.70;3.83;;;;;;;4.96;59.14;94868.34;5055347;28;20020;-72
2023/04/29 04:20:07;;;;;;;5.63;4.35;;;;;;;5.00;59.05;94874.16;5038323;28;20483;-72
2023/04/29 04:22:33;;;;;;;6.28;4.00;;;;;;;4.90;59.00;94866.13;5056908;28;20036;-72
2023/04/29 04:24:58;;;;;;;6.20;4.10;;;;;;;5.07;58.79;94873.69;5075237;28;20097;-72
2023/04/29 04:27:24;;;;;;;5.28;3.70;;;;;;;5.06;59.19;94866.03;5092962;28;20024;-72
2023/04/29 04:29:53;;;;;;;6.25;3.38;;;;;;;5.08;58.89;94869.34;5074749;28;20039;-72
2023/04/29 04:32:20;;;;;;;6.05;3.75;;;;;;;5.02;59.28;94862.84;5056324;28;20069;-71
2023/04/29 04:34:46;;;;;;;5.47;3.67;;;;;;;5.14;58.98;94861.25;5021907;28;20068;-72
2023/04/29 04:37:11;;;;;;;4.38;3.65;;;;;;;5.27;58.57;94863.94;5038052;28;20040;-72
2023/04/29 04:39:37;;;;;;;4.20;3.40;;;;;;;5.31;58.89;94861.03;5055360;28;20478;-72
2023/04/29 04:42:03;;;;;;;5.28;4.15;;;;;;;5.29;58.81;94855.19;5072345;28;20028;-72
2023/04/29 04:44:29;;;;;;;7.55;3.95;;;;;;;5.34;58.53;94857.47;5054927;28;20430;-71
2023/04/29 04:46:54;;;;;;;6.68;4.15;;;;;;;5.46;58.58;94858.44;5042612;28;20051;-72
2023/04/29 04:49:20;;;;;;;5.78;3.72;;;;;;;5.51;58.44;94854.66;5071957;28;20414;-72
2023/04/29 04:51:45;;;;;;;5.40;3.97;;;;;;;5.53;58.39;94857.16;5087441;28;20086;-71
2023/04/29 04:54:11;;;;;;;5.57;3.97;;;;;;;5.62;58.30;94860.91;5074656;28;20036;-71
2023/04/29 04:56:37;;;;;;;6.32;4.20;;;;;;;5.64;58.36;94851.34;5092484;28;20046;-72
2023/04/29 04:59:03;;;;;;;6.05;3.92;;;;;;;5.72;58.46;94860.25;5065913;28;20397;-72
2023/04/29 05:01:28;;;;;;;5.70;3.78;;;;;;;5.95;58.58;94868.28;5043669;28;20039;-71
2023/04/29 05:03:54;;;;;;;8.30;5.50;;;;;;;6.32;57.50;94864.16;5057015;28;20486;-72
2023/04/29 05:06:19;;;;;;;6.75;4.88;;;;;;;6.68;56.01;94871.22;5070252;28;20399;-72
2023/04/29 05:08:45;;;;;;;8.00;5.15;;;;;;;7.00;55.33;94868.25;5063198;28;20028;-72
2023/04/29 05:11:18;;;;;;;5.80;4.30;;;;;;;7.21;54.58;94852.22;5067387;28;20043;-72
2023/04/29 05:13:43;;;;;;;5.85;3.78;;;;;;;7.45;53.90;94850.53;5066800;28;20124;-72
2023/04/29 05:16:09;;;;;;;5.63;3.72;;;;;;;7.62;53.06;94849.34;5094326;28;20080;-72
2023/04/29 05:18:34;;;;;;;6.38;4.00;;;;;;;7.68;52.94;94842.91;5054178;28;20028;-73
2023/04/29 05:21:00;;;;;;;5.40;3.72;;;;;;;7.76;52.46;94835.44;5070463;28;20036;-72
2023/04/29 05:23:26;;;;;;;4.88;4.05;;;;;;;7.74;52.69;94834.69;5084309;28;20554;-72
2023/04/29 05:25:52;;;;;;;8.43;4.03;;;;;;;7.97;52.67;94833.06;5072027;28;20028;-72
2023/04/29 05:28:17;;;;;;;5.75;4.00;;;;;;;8.06;52.00;94822.88;5079865;28;20429;-71
2023/04/29 05:30:43;;;;;;;4.78;3.38;;;;;;;8.23;51.68;94821.63;5037356;28;20043;-71
2023/04/29 05:33:10;;;;;;;4.82;3.72;;;;;;;8.17;51.60;94821.28;5088513;28;20149;-73
2023/04/29 05:35:36;;;;;;;4.43;3.60;;;;;;;8.06;51.77;94807.34;5090160;28;20028;-72
2023/04/29 05:38:01;;;;;;;5.15;3.60;;;;;;;8.27;51.42;94817.91;5080254;28;20032;-73
2023/04/29 05:40:27;;;;;;;4.15;3.50;;;;;;;8.28;51.00;94810.97;5091946;28;20407;-70
2023/04/29 05:42:52;;;;;;;6.53;3.83;;;;;;;8.41;51.13;94814.31;5085818;28;20208;-71
2023/04/29 05:45:18;;;;;;;6.40;3.65;;;;;;;8.45;51.38;94818.31;5076591;28;20085;-72
2023/04/29 05:47:43;;;;;;;10.23;6.22;;;;;;;8.36;53.55;94808.63;5071999;28;20039;-72
2023/04/29 05:50:09;;;;;;;13.77;6.88;;;;;;;8.61;53.66;94822.34;5075321;28;20470;-71
2023/04/29 05:52:34;;;;;;;11.13;7.50;;;;;;;8.18;53.98;94809.97;5065477;28;20123;-72
2023/04/29 05:54:59;;;;;;;8.90;6.78;;;;;;;8.65;52.88;94810.84;5088507;28;20032;-71
2023/04/29 05:57:25;;;;;;;9.38;6.57;;;;;;;8.44;52.46;94764.91;5090716;28;20024;-71
2023/04/29 05:59:50;;;;;;;10.40;6.63;;;;;;;8.58;52.98;94817.41;5089979;28;20470;-72
2023/04/29 06:02:16;;;;;;;10.30;6.30;;;;;;;8.85;51.85;94797.19;5067504;28;20460;-73
2023/04/29 06:04:42;;;;;;;11.50;7.03;;;;;;;9.20;50.72;94816.19;5067135;28;20036;-73
2023/04/29 06:07:08;;;;;;;9.90;6.40;;;;;;;9.52;49.53;94818.84;5089036;28;20024;-73
2023/04/29 06:09:35;;;;;;;10.80;7.72;;;;;;;9.78;49.03;94814.19;5055685;28;20039;-73
2023/04/29 06:12:00;;;;;;;10.77;7.65;;;;;;;10.12;47.69;94820.09;5074882;28;20067;-74
2023/04/29 06:14:25;;;;;;;14.75;11.30;;;;;;;10.45;47.72;94833.91;5070362;28;20571;-73
2023/04/29 06:16:52;;;;;;;9.13;6.35;;;;;;;10.73;46.18;94827.25;5050778;28;20044;-73
2023/04/29 06:19:18;;;;;;;14.23;9.68;;;;;;;11.00;45.49;94818.09;5054116;28;20505;-75
2023/04/29 06:21:43;;;;;;;6.57;5.78;;;;;;;10.63;45.82;94814.19;5037366;28;20029;-75
2023/04/29 06:24:09;;;;;;;10.60;5.82;;;;;;;10.67;45.35;94813.00;5098664;28;20036;-72
2023/04/29 06:26:34;;;;;;;12.90;6.75;;;;;;;10.62;45.96;94807.38;5037059;28;20036;-73
2023/04/29 06:29:00;;;;;;;9.38;6.38;;;;;;;10.90;46.37;94813.69;5083210;28;20032;-72
2023/04/29 06:31:26;;;;;;;7.50;6.13;;;;;;;11.27;45.59;94807.94;5063263;28;20032;-72
2023/04/29 06:33:51;;;;;;;10.68;6.70;;;;;;;11.39;44.95;94819.06;5065494;28;20022;-73
2023/04/29 06:36:17;;;;;;;11.57;6.68;;;;;;;11.81;43.59;94816.31;5060308;28;20028;-72
2023/04/29 06:38:42;;;;;;;12.63;6.75;;;;;;;11.85;44.14;94825.50;5085379;28;20025;-73
2023/04/29 06:41:09;;;;;;;11.00;6.95;;;;;;;12.10;44.07;94808.56;5074857;28;20032;-73
2023/04/29 06:43:34;;;;;;;15.90;7.22;;;;;;;12.28;43.90;94819.94;5091282;28;20111;-72
2023/04/29 06:46:00;;;;;;;10.30;6.70;;;;;;;11.46;45.29;94817.59;5072659;28;20112;-73
2023/04/29 06:48:26;;;;;;;14.30;7.50;;;;;;;11.52;45.00;94804.06;5078688;28;20025;-72
2023/04/29 06:50:53;;;;;;;19.83;8.80;;;;;;;11.99;43.90;94817.34;5088571;28;20426;-72
2023/04/29 06:53:18;;;;;;;11.63;8.90;;;;;;;12.36;43.11;94818.44;5099108;28;20032;-73
2023/04/29 06:55:45;;;;;;;12.00;7.30;;;;;;;12.32;42.78;94802.28;5054769;28;20033;-72
2023/04/29 06:58:12;;;;;;;17.27;8.13;;;;;;;12.75;43.04;94816.63;5063181;28;20033;-73
2023/04/29 07:00:37;;;;;;;11.80;8.05;;;;;;;12.96;41.56;94816.44;5055369;28;20043;-73
2023/04/29 07:03:03;;;;;;;13.43;8.23;;;;;;;12.14;42.55;94814.31;5061104;28;20052;-72
2023/04/29 07:05:28;;;;;;;14.80;8.23;;;;;;;11.59;43.90;94802.59;5085196;28;20028;-73
2023/04/29 07:07:54;;;;;;;13.40;8.07;;;;;;;11.49;44.55;94809.53;5074142;28;20039;-71
2023/04/29 07:10:19;;;;;;;11.63;7.70;;;;;;;11.34;46.04;94809.09;5055092;28;20300;-71
2023/04/29 07:12:45;;;;;;;15.23;8.70;;;;;;;11.43;45.63;94811.84;5068172;28;20036;-70
2023/04/29 07:15:10;;;;;;;13.23;7.85;;;;;;;11.60;44.63;94800.81;5070250;28;20090;-70
2023/04/29 07:17:36;;;;;;;11.75;7.80;;;;;;;11.99;44.15;94806.91;5084478;28;20050;-70
2023/04/29 07:20:02;;;;;;;18.58;9.20;;;;;;;12.22;43.35;94807.47;5080982;28;20071;-70
2023/04/29 07:22:28;;;;;;;15.02;8.70;;;;;;;12.26;43.76;94790.63;5065650;28;20411;-69
2023/04/29 07:24:54;;;;;;;15.95;7.68;;;;;;;12.35;43.23;94796.78;5078042;28;20322;-69
2023/04/29 07:27:19;;;;;;;13.45;8.10;;;;;;;12.02;43.59;94793.63;5085601;28;20020;-70
2023/04/29 07:29:45;;;;;;;9.88;7.47;;;;;;;12.33;43.85;94798.69;5080074;28;20032;-70
2023/04/29 07:32:10;;;;;;;10.73;6.63;;;;;;;12.52;42.28;94796.06;5084215;28;20025;-70
2023/04/29 07:34:36;;;;;;;9.32;6.60;;;;;;;12.78;41.58;94790.25;5070678;28;20032;-69
2023/04/29 07:37:02;;;;;;;10.43;7.10;;;;;;;12.59;41.21;94774.66;5055489;28;20028;-70
2023/04/29 07:39:28;;;;;;;12.38;7.45;;;;;;;12.86;41.91;94793.00;5075315;28;20456;-70
2023/04/29 07:41:54;;;;;;;10.40;7.47;;;;;;;13.23;40.95;94794.78;5046555;28;20028;-70
2023/04/29 07:44:20;;;;;;;17.33;8.80;;;;;;;13.43;40.76;94784.28;5076897;28;20020;-72
2023/04/29 07:46:46;;;;;;;13.70;8.05;;;;;;;13.81;41.04;94793.69;5069616;28;20024;-72
2023/04/29 07:49:11;;;;;;;18.05;9.15;;;;;;;14.08;39.08;94792.84;5091598;28;20036;-70
2023/04/29 07:51:40;;;;;;;14.63;7.47;;;;;;;14.34;38.99;94792.09;5092308;28;20057;-70
2023/04/29 07:54:06;;;;;;;12.57;7.85;;;;;;;14.38;38.18;94793.44;5090130;28;20024;-70
2023/04/29 07:56:31;;;;;;;11.65;6.78;;;;;;;14.34;37.12;94786.84;5074485;28;20043;-70
2023/04/29 07:58:58;;;;;;;12.88;7.68;;;;;;;14.80;37.78;94780.53;5092899;28;20406;-70
2023/04/29 08:01:24;;;;;;;12.98;8.43;;;;;;;14.92;37.93;94778.47;5041387;28;20518;-70
2023/04/29 08:03:49;;;;;;;12.30;7.82;;;;;;;14.78;37.72;94774.63;5036691;28;20114;-70
2023/04/29 08:06:15;;;;;;;14.57;7.57;;;;;;;14.14;37.50;94766.13;5053221;28;20029;-70
2023/04/29 08:08:40;;;;;;;11.65;7.22;;;;;;;14.64;37.22;94770.78;5090938;28;20399;-71
2023/04/29 08:11:06;;;;;;;12.55;7.30;;;;;;;14.94;37.13;94773.94;5050685;28;20028;-70
2023/04/29 08:13:31;;;;;;;13.70;8.55;;;;;;;14.91;37.46;94764.59;5055906;28;20047;-70
2023/04/29 08:15:57;;;;;;;12.20;7.20;;;;;;;14.97;37.23;94768.38;5072915;28;20036;-70
2023/04/29 08:18:22;;;;;;;9.45;7.07;;;;;;;15.18;37.32;94771.44;5052395;28;20032;-70
2023/04/29 08:20:50;;;;;;;12.23;8.18;;;;;;;15.31;37.51;94762.34;5071106;28;20044;-70
2023/04/29 08:23:16;;;;;;;11.73;7.07;;;;;;;15.61;36.45;94769.66;5067284;28;20075;-70
2023/04/29 08:25:42;;;;;;;20.60;6.70;;;;;;;15.44;37.29;94765.34;5078868;28;20474;-70
2023/04/29 08:28:08;;;;;;;14.02;6.15;;;;;;;15.58;35.27;94751.66;5061598;28;20051;-70
2023/04/29 08:30:37;;;;;;;8.50;5.20;;;;;;;15.20;35.76;94750.34;5057385;28;20040;-70
2023/04/29 08:33:03;;;;;;;11.88;5.55;;;;;;;15.50;33.47;94735.91;5069873;28;20123;-70
2023/04/29 08:35:28;;;;;;;10.88;5.30;;;;;;;15.65;33.63;94755.25;5081806;28;20028;-70
2023/04/29 08:37:53;;;;;;;9.65;4.68;;;;;;;15.85;33.26;94752.38;5087821;28;20486;-70
2023/04/29 08:40:19;;;;;;;11.18;5.35;;;;;;;15.90;33.57;94744.88;5091328;28;20497;-70
2023/04/29 08:42:45;;;;;;;7.97;5.40;;;;;;;16.08;33.64;94742.94;5072589;28;20517;-71
2023/04/29 08:45:12;;;;;;;7.00;5.15;;;;;;;16.21;33.80;94752.91;5071560;28;20024;-70
2023/04/29 08:47:37;;;;;;;13.02;5.75;;;;;;;16.54;34.59;94745.88;5037135;28;20127;-69
2023/04/29 08:50:03;;;;;;;7.97;5.30;;;;;;;16.63;32.95;94746.72;5066136;28;20032;-69
2023/04/29 08:52:33;;;;;;;6.68;5.15;;;;;;;16.37;33.19;94741.63;5053574;28;20503;-69
2023/04/29 08:55:01;;;;;;;10.57;6.03;;;;;;;16.06;32.66;94739.66;5083490;28;20089;-69
2023/04/29 08:57:26;;;;;;;11.00;5.43;;;;;;;15.86;32.56;94725.22;5063464;28;20032;-69
2023/04/29 08:59:52;;;;;;;11.73;4.93;;;;;;;15.77;32.48;94723.59;5062760;28;20413;-70
2023/04/29 09:02:19;;;;;;;5.93;3.78;;;;;;;16.03;30.65;94729.50;5041177;28;20110;-70
2023/04/29 09:04:51;;;;;;;12.35;4.40;;;;;;;15.90;32.34;94725.72;5058291;28;20499;-69
2023/04/29 09:07:16;;;;;;;8.18;4.55;;;;;;;16.13;31.65;94715.41;5063807;28;20032;-71
2023/04/29 09:09:41;;;;;;;5.40;4.45;;;;;;;16.40;31.60;94717.69;5070505;28;20032;-70
2023/04/29 09:12:08;;;;;;;12.27;7.35;;;;;;;16.56;30.81;94713.44;5038255;28;20079;-71
2023/04/29 09:14:33;;;;;;;8.38;4.78;;;;;;;16.65;31.32;94713.25;5061204;28;20487;-70
2023/04/29 09:16:59;;;;;;;8.32;4.88;;;;;;;16.91;30.37;94713.06;5061802;28;20341;-71
2023/04/29 09:19:28;;;;;;;7.25;4.40;;;;;;;16.80;29.95;94700.31;5068728;28;20036;-70
2023/04/29 09:21:56;;;;;;;6.75;3.92;;;;;;;16.11;30.01;94709.53;5064527;28;20036;-70
2023/04/29 09:24:26;;;;;;;7.95;4.00;;;;;;;15.93;29.63;94709.66;5042587;28;20029;-70
2023/04/29 09:26:51;;;;;;;4.63;3.50;;;;;;;15.81;29.76;94702.13;5051600;28;20484;-70
2023/04/29 09:29:17;;;;;;;7.30;4.13;;;;;;;15.84;30.99;94701.00;5064804;28;20033;-70
2023/04/29 09:31:43;;;;;;;6.95;4.10;;;;;;;16.18;31.71;94707.88;5069628;28;20098;-71
2023/04/29 09:34:08;;;;;;;6.90;4.25;;;;;;;16.24;31.03;94686.25;5050126;28;20036;-71
2023/04/29 09:36:36;;;;;;;9.38;5.00;;;;;;;16.54;31.06;94693.44;5069195;28;20048;-70
2023/04/29 09:39:01;;;;;;;7.47;4.47;;;;;;;16.54;29.84;94674.25;5061966;28;20399;-71
2023/04/29 09:41:27;;;;;;;8.27;4.32;;;;;;;16.68;29.86;94676.19;5043744;28;20025;-70
2023/04/29 09:44:05;;;;;;;7.30;4.00;;;;;;;17.01;29.94;94694.50;5069328;28;20032;-70
2023/04/29 09:46:35;;;;;;;6.57;3.63;;;;;;;17.16;29.63;94689.34;5066282;28;20020;-70
2023/04/29 09:49:01;;;;;;;5.90;3.42;;;;;;;17.30;28.35;94672.06;5031389;28;20033;-70
2023/04/29 09:51:27;;;;;;;8.35;4.13;;;;;;;17.40;28.20;94675.31;5065078;28;20059;-69
2023/04/29 09:53:53;;;;;;;5.35;3.60;;;;;;;17.43;28.31;94654.78;5052821;28;20056;-71
2023/04/29 09:56:18;;;;;;;7.32;3.55;;;;;;;17.63;29.17;94678.81;5060586;28;20024;-69
2023/04/29 09:58:44;;;;;;;8.63;3.45;;;;;;;17.70;27.96;94672.84;5056248;28;20041;-70
2023/04/29 10:01:12;;;;;;;9.60;3.70;;;;;;;17.75;26.45;94662.66;5053465;28;20457;-70
2023/04/29 10:03:38;;;;;;;8.18;3.60;;;;;;;17.81;28.65;94665.41;5061345;28;20098;-72
2023/04/29 10:06:05;;;;;;;6.88;3.60;;;;;;;17.80;30.46;94645.41;5048857;28;20033;-71
2023/04/29 10:08:31;;;;;;;7.68;3.90;;;;;;;18.02;28.79;94656.88;5031723;28;20062;-72
2023/04/29 10:11:01;;;;;;;8.13;4.63;;;;;;;17.90;27.85;94644.34;5047304;28;20090;-72
2023/04/29 10:13:27;;;;;;;8.73;4.03;;;;;;;17.98;27.23;94649.53;5050264;28;20089;-73
2023/04/29 10:16:26;;;;;;;8.45;4.35;;;;;;;17.91;27.75;94652.03;5051030;28;20291;-72
2023/04/29 10:18:53;;;;;;;6.72;4.38;;;;;;;17.96;27.82;94648.88;5048343;28;20020;-76
2023/04/29 10:21:29;;;;;;;8.40;4.50;;;;;;;17.84;26.85;94638.78;5050604;28;20028;-74
2023/04/29 10:23:56;;;;;;;9.32;4.47;;;;;;;17.71;27.17;94646.41;5035927;28;20098;-74
2023/04/29 10:26:22;;;;;;;6.45;4.50;;;;;;;17.70;26.97;94636.88;5069446;28;20033;-76
2023/04/29 10:28:48;;;;;;;6.47;4.40;;;;;;;17.68;27.50;94640.69;5053849;28;20425;-75
2023/04/29 10:31:15;;;;;;;7.30;4.32;;;;;;;17.65;26.89;94626.09;5053707;28;20035;-72
2023/04/29 10:33:42;;;;;;;7.57;4.90;;;;;;;17.81;26.27;94638.31;5062708;28;20557;-75
2023/04/29 10:36:09;;;;;;;6.43;4.05;;;;;;;17.81;26.90;94622.56;5038785;28;20047;-74
2023/04/29 10:38:39;;;;;;;7.78;4.97;;;;;;;17.80;27.98;94632.25;5057683;28;20025;-73
2023/04/29 10:41:08;;;;;;;11.00;5.70;;;;;;;17.83;27.51;94618.78;5048405;28;20032;-74
2023/04/29 10:43:34;;;;;;;8.38;5.38;;;;;;;17.91;28.15;94609.19;5058275;28;20033;-73
2023/04/29 10:46:15;;;;;;;9.32;5.95;;;;;;;17.99;27.63;94627.50;5055704;28;20044;-74
2023/04/29 10:48:42;;;;;;;10.10;6.43;;;;;;;18.05;28.64;94627.63;5066771;28;20029;-73
2023/04/29 10:51:07;;;;;;;8.55;5.38;;;;;;;18.12;27.44;94622.47;5055336;28;20082;-75
2023/04/29 10:53:33;;;;;;;8.23;6.07;;;;;;;18.19;27.65;94617.31;5068112;28;20028;-73
2023/04/29 10:56:02;;;;;;;9.05;5.88;;;;;;;18.13;25.50;94608.31;5042725;28;20040;-71
2023/04/29 10:58:41;;;;;;;11.15;5.93;;;;;;;18.11;25.61;94602.44;5035785;28;20028;-72
2023/04/29 11:01:09;;;;;;;12.38;6.30;;;;;;;18.20;25.89;94613.69;5047805;28;20041;-73
2023/04/29 11:03:54;;;;;;;8.38;5.93;;;;;;;18.22;27.20;94617.78;5054042;28;20076;-72
2023/04/29 11:06:46;;;;;;;9.43;5.88;;;;;;;18.25;24.78;94616.63;5045891;28;20025;-73
2023/04/29 11:09:25;;;;;;;8.65;5.53;;;;;;;18.21;25.14;94604.81;5071904;28;20131;-74
2023/04/29 11:12:02;;;;;;;11.82;5.70;;;;;;;18.17;26.69;94614.88;5059080;28;20031;-74
2023/04/29 11:14:37;;;;;;;10.40;6.32;;;;;;;18.30;25.76;94615.09;5091561;28;20107;-74
2023/04/29 11:17:14;;;;;;;11.85;6.20;;;;;;;18.16;26.75;94591.38;5071526;28;20047;-74
2023/04/29 11:19:44;;;;;;;10.82;5.10;;;;;;;18.24;27.06;94615.78;5074252;28;20466;-74
2023/04/29 11:22:20;;;;;;;8.48;5.40;;;;;;;18.25;25.76;94614.78;5056599;28;20094;-74
2023/04/29 11:24:54;;;;;;;7.38;4.72;;;;;;;18.33;25.54;94615.69;5053046;28;20076;-74
2023/04/29 11:27:24;;;;;;;7.38;5.00;;;;;;;18.28;25.72;94611.00;5065971;28;20566;-74
2023/04/29 11:29:49;;;;;;;7.97;4.07;;;;;;;18.43;24.88;94618.91;5036163;28;20041;-75
2023/04/29 11:32:15;;;;;;;9.63;3.60;;;;;;;18.18;25.96;94600.72;5085350;28;20479;-74
2023/04/29 11:34:41;;;;;;;7.63;4.28;;;;;;;18.22;25.42;94615.16;5071770;28;20049;-73